Time;durP1;ratioP1;P1;durP2;ratioP2;P2;SDS_P1;SDS_P2;PMS_P1;PMS_P2;Temp;Humidity;BMP_temperature;BMP_pressure;BME280_temperature;BME280_humidity;BME280_pressure;Samples;Min_cycle;Max_cycle;Signal;HPM_P1;HPM_P2
2022/04/15 00:01:14;;;;;;;11.93;5.47;;;;;;;7.57;100.00;102428.44;10342926;28;20445;-81
2022/04/15 00:06:15;;;;;;;10.30;6.50;;;;;;;7.62;100.00;102424.03;10387739;28;20513;-81
2022/04/15 00:11:16;;;;;;;14.60;5.93;;;;;;;7.68;100.00;102428.75;10389244;28;20042;-80
2022/04/15 00:16:16;;;;;;;15.77;6.07;;;;;;;7.70;100.00;102431.28;10381616;28;20106;-79
2022/04/15 00:21:17;;;;;;;12.50;6.15;;;;;;;7.73;100.00;102435.53;10348962;28;20034;-78
2022/04/15 00:26:17;;;;;;;14.38;6.53;;;;;;;7.68;100.00;102422.41;10346183;28;20508;-80
2022/04/15 00:31:19;;;;;;;10.20;6.72;;;;;;;7.67;100.00;102410.63;10348792;28;20038;-79
2022/04/15 00:36:19;;;;;;;10.88;6.00;;;;;;;7.77;100.00;102425.88;10347494;28;20081;-79
2022/04/15 00:41:20;;;;;;;12.50;5.63;;;;;;;7.78;100.00;102428.41;10348119;28;20101;-79
2022/04/15 00:46:20;;;;;;;14.90;5.78;;;;;;;7.80;100.00;102429.06;10374991;28;20409;-80
2022/04/15 00:51:21;;;;;;;6.28;4.63;;;;;;;7.76;100.00;102441.47;10395051;28;20037;-78
2022/04/15 00:56:21;;;;;;;8.15;5.18;;;;;;;7.67;100.00;102421.59;10395457;28;20037;-79
2022/04/15 01:01:22;;;;;;;9.98;6.22;;;;;;;7.75;100.00;102434.31;10378738;28;20029;-78
2022/04/15 01:06:22;;;;;;;10.52;5.05;;;;;;;7.75;100.00;102427.94;10378751;28;20081;-79
2022/04/15 01:11:24;;;;;;;8.00;4.72;;;;;;;7.75;100.00;102437.06;10354638;28;20070;-78
2022/04/15 01:16:24;;;;;;;8.52;4.20;;;;;;;7.71;100.00;102424.78;10319344;28;20098;-79
2022/04/15 01:21:25;;;;;;;10.23;4.75;;;;;;;7.86;100.00;102439.25;10330344;28;20038;-79
2022/04/15 01:26:26;;;;;;;10.93;4.18;;;;;;;7.82;100.00;102435.19;10329818;28;20022;-83
2022/04/15 01:31:31;;;;;;;6.20;3.63;;;;;;;7.70;100.00;102425.81;10312534;28;20030;-80
2022/04/15 01:36:32;;;;;;;8.18;3.38;;;;;;;7.78;100.00;102439.38;10312533;28;20039;-78
2022/04/15 01:41:38;;;;;;;7.85;3.58;;;;;;;7.82;100.00;102440.69;10313548;28;20035;-79
2022/04/15 01:46:38;;;;;;;7.72;4.65;;;;;;;7.85;100.00;102439.44;10334599;28;20034;-79
2022/04/15 01:51:39;;;;;;;11.88;4.65;;;;;;;7.82;100.00;102437.94;10314247;28;20038;-79
2022/04/15 01:56:39;;;;;;;7.10;4.03;;;;;;;7.86;100.00;102452.94;10328271;28;20035;-79
2022/04/15 02:01:40;;;;;;;7.68;4.45;;;;;;;7.85;100.00;102459.50;10313023;28;20045;-80
2022/04/15 02:06:40;;;;;;;9.90;4.75;;;;;;;7.77;100.00;102440.44;10311782;28;20043;-79
2022/04/15 02:11:41;;;;;;;11.75;4.40;;;;;;;7.89;100.00;102451.69;10326871;28;20043;-79
2022/04/15 02:16:42;;;;;;;10.82;4.85;;;;;;;7.93;100.00;102457.66;10326115;28;20062;-80
2022/04/15 02:21:42;;;;;;;6.28;4.22;;;;;;;7.85;100.00;102462.25;10313217;28;20038;-80
2022/04/15 02:26:42;;;;;;;13.27;4.20;;;;;;;7.81;100.00;102447.22;10312503;28;20031;-80
2022/04/15 02:31:43;;;;;;;9.93;5.75;;;;;;;7.92;100.00;102466.91;10345109;28;20030;-80
2022/04/15 02:36:43;;;;;;;12.98;7.40;;;;;;;7.85;100.00;102478.69;10352008;28;20065;-78
2022/04/15 02:41:44;;;;;;;16.13;8.77;;;;;;;7.72;100.00;102462.09;10329730;28;20046;-79
2022/04/15 02:46:44;;;;;;;16.25;8.15;;;;;;;7.83;100.00;102489.00;10314525;28;20027;-79
2022/04/15 02:51:45;;;;;;;13.45;8.52;;;;;;;7.70;100.00;102475.16;10319032;28;20023;-79
2022/04/15 02:56:45;;;;;;;13.90;8.32;;;;;;;7.72;100.00;102491.41;10325769;28;20471;-80
2022/04/15 03:01:46;;;;;;;11.68;6.68;;;;;;;7.57;100.00;102472.28;10309622;28;20502;-83
2022/04/15 03:06:46;;;;;;;13.57;7.50;;;;;;;7.59;100.00;102492.13;10325586;28;20042;-81
2022/04/15 03:11:47;;;;;;;10.20;6.85;;;;;;;7.52;100.00;102485.72;10308995;28;20042;-79
2022/04/15 03:16:47;;;;;;;10.05;6.50;;;;;;;7.57;100.00;102496.97;10324777;28;20106;-79
2022/04/15 03:21:47;;;;;;;11.55;7.05;;;;;;;7.54;100.00;102494.59;10325759;28;20078;-84
2022/04/15 03:26:48;;;;;;;9.35;6.93;;;;;;;7.36;100.00;102484.94;10309769;28;20039;-79
2022/04/15 03:31:48;;;;;;;8.73;6.03;;;;;;;7.35;100.00;102488.69;10309153;28;20035;-80
2022/04/15 03:36:49;;;;;;;5.82;4.80;;;;;;;7.41;100.00;102504.38;10306357;28;20034;-79
2022/04/15 03:41:49;;;;;;;7.32;5.72;;;;;;;7.26;100.00;102496.19;10308532;28;20042;-80
2022/04/15 03:46:50;;;;;;;10.60;5.95;;;;;;;7.32;100.00;102513.75;10324302;28;20038;-79
2022/04/15 03:51:50;;;;;;;7.78;5.80;;;;;;;7.34;100.00;102519.91;10309608;28;20039;-80
2022/04/15 03:56:51;;;;;;;8.07;5.07;;;;;;;7.31;100.00;102523.00;10323930;28;20506;-80
2022/04/15 04:01:51;;;;;;;6.32;3.55;;;;;;;7.27;100.00;102529.91;10326186;28;20049;-80
2022/04/15 04:06:52;;;;;;;8.25;5.18;;;;;;;6.77;100.00;102442.06;10348441;28;20073;-81
2022/04/15 04:11:53;;;;;;;9.43;5.32;;;;;;;7.25;100.00;102534.72;10337845;28;20372;-79
2022/04/15 04:16:54;;;;;;;5.85;4.25;;;;;;;7.24;100.00;102546.75;10307240;28;20035;-79
2022/04/15 04:21:54;;;;;;;10.27;4.82;;;;;;;7.23;100.00;102545.03;10311487;28;20366;-79
2022/04/15 04:26:55;;;;;;;10.48;5.93;;;;;;;7.12;100.00;102564.69;10315565;28;20038;-82
2022/04/15 04:31:55;;;;;;;11.98;5.03;;;;;;;7.12;100.00;102559.22;10316717;28;20055;-80
2022/04/15 04:36:56;;;;;;;6.93;4.78;;;;;;;7.17;100.00;102568.59;10314756;28;20039;-79
2022/04/15 04:41:57;;;;;;;7.75;5.88;;;;;;;7.12;100.00;102570.19;10314899;28;20066;-80
2022/04/15 04:46:58;;;;;;;6.72;5.13;;;;;;;6.98;100.00;102575.44;10330604;28;20033;-81
2022/04/15 04:51:58;;;;;;;9.43;4.95;;;;;;;6.97;100.00;102589.34;10338809;28;20030;-83
2022/04/15 04:56:59;;;;;;;7.22;5.50;;;;;;;6.92;100.00;102592.63;10354409;28;20034;-80
2022/04/15 05:01:59;;;;;;;10.57;5.55;;;;;;;6.99;100.00;102604.56;10319814;28;20037;-80
2022/04/15 05:07:00;;;;;;;7.80;5.72;;;;;;;6.88;100.00;102618.69;10352951;28;20050;-81
2022/04/15 05:12:00;;;;;;;7.22;5.78;;;;;;;6.90;100.00;102616.63;10355109;28;20034;-80
2022/04/15 05:17:01;;;;;;;8.27;6.60;;;;;;;6.87;100.00;102627.97;10333270;28;20058;-80
2022/04/15 05:22:01;;;;;;;9.65;7.40;;;;;;;6.87;100.00;102617.84;10314863;28;20035;-79
2022/04/15 05:27:02;;;;;;;12.15;8.55;;;;;;;6.90;100.00;102633.03;10312946;28;20031;-79
2022/04/15 05:32:03;;;;;;;14.25;9.00;;;;;;;6.91;100.00;102645.72;10314367;28;20340;-79
2022/04/15 05:37:03;;;;;;;11.63;8.95;;;;;;;6.93;100.00;102643.63;10313334;28;20042;-80
2022/04/15 05:42:04;;;;;;;9.77;8.05;;;;;;;6.96;100.00;102650.63;10312105;28;20038;-79
2022/04/15 05:47:05;;;;;;;10.57;8.27;;;;;;;6.96;100.00;102656.94;10342531;28;20030;-80
2022/04/15 05:52:06;;;;;;;10.10;7.55;;;;;;;7.03;100.00;102668.88;10352108;28;20045;-80
2022/04/15 05:57:07;;;;;;;8.10;6.43;;;;;;;7.01;100.00;102651.78;10335733;28;20035;-79
2022/04/15 06:02:07;;;;;;;9.23;6.50;;;;;;;7.24;100.00;102678.25;10352480;28;20061;-80
2022/04/15 06:07:08;;;;;;;14.98;8.93;;;;;;;7.22;100.00;102680.31;10352308;28;20474;-80
2022/04/15 06:12:09;;;;;;;14.50;8.48;;;;;;;7.22;100.00;102680.31;10351575;28;20042;-79
2022/04/15 06:17:10;;;;;;;11.75;8.77;;;;;;;7.32;100.00;102686.38;10352948;28;20405;-80
2022/04/15 06:22:10;;;;;;;24.02;11.50;;;;;;;7.25;100.00;102674.44;10353149;28;20053;-78
2022/04/15 06:27:11;;;;;;;24.98;13.88;;;;;;;7.30;100.00;102688.44;10362885;28;20038;-81
2022/04/15 06:32:11;;;;;;;20.52;11.98;;;;;;;7.38;100.00;102702.06;10390480;28;20038;-79
2022/04/15 06:37:12;;;;;;;27.35;11.98;;;;;;;7.48;100.00;102702.63;10391256;28;20034;-80
2022/04/15 06:42:12;;;;;;;20.95;11.10;;;;;;;7.47;100.00;102706.38;10337700;28;20047;-79
2022/04/15 06:47:12;;;;;;;17.30;11.38;;;;;;;7.36;100.00;102687.69;10323896;28;20034;-78
2022/04/15 06:52:13;;;;;;;21.70;11.32;;;;;;;7.61;100.00;102723.03;10332061;28;20031;-79
2022/04/15 06:57:14;;;;;;;14.95;9.10;;;;;;;7.47;100.00;102706.38;10335252;28;20046;-80
2022/04/15 07:02:14;;;;;;;16.80;9.65;;;;;;;7.59;100.00;102720.47;10348494;28;20057;-79
2022/04/15 07:07:15;;;;;;;23.05;9.75;;;;;;;7.60;100.00;102741.34;10347465;28;20065;-78
2022/04/15 07:12:16;;;;;;;21.88;8.95;;;;;;;7.59;100.00;102741.56;10349116;28;20054;-79
2022/04/15 07:17:16;;;;;;;17.58;8.45;;;;;;;7.58;100.00;102753.56;10349362;28;20121;-78
2022/04/15 07:22:20;;;;;;;18.33;7.88;;;;;;;7.53;100.00;102761.50;10349571;28;20022;-79
2022/04/15 07:27:21;;;;;;;14.02;8.02;;;;;;;7.64;100.00;102750.06;10347792;28;20034;-77
2022/04/15 07:32:22;;;;;;;18.95;7.53;;;;;;;6.92;100.00;102643.81;10348713;28;20026;-78
2022/04/15 07:37:22;;;;;;;9.82;5.97;;;;;;;7.50;100.00;102757.22;10346746;28;20063;-79
2022/04/15 07:42:23;;;;;;;11.75;5.70;;;;;;;7.77;100.00;102761.25;10346559;28;20037;-78
2022/04/15 07:47:23;;;;;;;16.05;5.47;;;;;;;7.91;100.00;102770.47;10348846;28;20509;-78
2022/04/15 07:52:24;;;;;;;18.40;6.30;;;;;;;8.05;100.00;102763.28;10348676;28;20053;-78
2022/04/15 07:57:27;;;;;;;12.75;7.03;;;;;;;8.26;100.00;102770.72;10383802;28;20051;-77
2022/04/15 08:02:28;;;;;;;14.20;6.28;;;;;;;8.30;100.00;102766.53;10349926;28;20074;-77
2022/04/15 08:07:28;;;;;;;11.00;6.10;;;;;;;8.37;100.00;102772.09;10306609;28;20051;-77
2022/04/15 08:12:30;;;;;;;14.77;6.50;;;;;;;8.50;100.00;102780.53;10308223;28;20077;-77
2022/04/15 08:17:30;;;;;;;13.68;6.35;;;;;;;8.81;100.00;102790.38;10328923;28;20045;-77
2022/04/15 08:22:34;;;;;;;14.50;6.55;;;;;;;8.93;100.00;102791.56;10388729;28;20045;-78
2022/04/15 08:27:34;;;;;;;12.50;6.53;;;;;;;9.17;100.00;102787.53;10386892;28;21159;-78
2022/04/15 08:32:35;;;;;;;10.82;6.43;;;;;;;9.54;100.00;102784.66;10382207;28;20600;-78
2022/04/15 08:37:35;;;;;;;8.82;5.13;;;;;;;9.89;100.00;102794.63;10370335;28;20126;-78
2022/04/15 08:42:36;;;;;;;13.63;5.80;;;;;;;9.90;100.00;102746.81;10376383;28;20508;-77
2022/04/15 08:47:36;;;;;;;8.40;5.15;;;;;;;10.08;100.00;102778.41;10370242;28;20026;-77
2022/04/15 08:52:37;;;;;;;10.40;5.55;;;;;;;9.98;100.00;102744.91;10370251;28;20049;-78
2022/04/15 08:57:38;;;;;;;12.07;5.78;;;;;;;10.14;100.00;102794.09;10386674;28;20034;-78
2022/04/15 09:02:38;;;;;;;10.45;5.30;;;;;;;10.13;100.00;102789.69;10384003;28;20115;-78
2022/04/15 09:07:39;;;;;;;13.63;5.70;;;;;;;10.02;100.00;102799.34;10386667;28;20050;-78
2022/04/15 09:12:40;;;;;;;17.30;5.55;;;;;;;9.99;100.00;102808.00;10374575;28;20030;-78
2022/04/15 09:17:52;;;;;;;9.25;4.70;;;;;;;9.99;100.00;102805.25;10377584;28;20038;-78
2022/04/15 09:22:54;;;;;;;12.07;5.50;;;;;;;10.08;100.00;102815.03;10394628;28;20033;-78
2022/04/15 09:27:57;;;;;;;7.30;5.05;;;;;;;10.30;100.00;102826.81;10371649;28;20056;-79
2022/04/15 09:33:01;;;;;;;9.80;5.32;;;;;;;10.58;100.00;102820.34;10388112;28;20563;-77
2022/04/15 09:38:03;;;;;;;9.65;5.55;;;;;;;10.86;100.00;102822.16;10393562;28;20029;-77
2022/04/15 09:43:06;;;;;;;12.32;6.03;;;;;;;10.51;100.00;102822.25;10388210;28;20056;-78
2022/04/15 09:48:08;;;;;;;10.55;5.55;;;;;;;10.37;100.00;102818.59;10375808;28;20022;-78
2022/04/15 09:53:16;;;;;;;8.93;5.57;;;;;;;10.23;100.00;102828.69;10392063;28;20062;-78
2022/04/15 09:58:18;;;;;;;7.88;4.72;;;;;;;10.12;100.00;102836.66;10386628;28;20030;-77
2022/04/15 10:03:20;;;;;;;7.72;4.63;;;;;;;10.41;100.00;102838.31;10392680;28;20121;-78
2022/04/15 10:08:21;;;;;;;8.85;5.13;;;;;;;10.20;100.00;102828.22;10393157;28;20038;-78
2022/04/15 10:13:26;;;;;;;7.22;4.40;;;;;;;10.34;100.00;102846.56;10373456;28;20084;-77
2022/04/15 10:18:27;;;;;;;10.43;4.90;;;;;;;10.26;100.00;102846.69;10392068;28;20042;-78
2022/04/15 10:23:28;;;;;;;11.02;5.70;;;;;;;10.16;100.00;102837.94;10375268;28;20496;-76
2022/04/15 10:28:46;;;;;;;11.98;5.60;;;;;;;9.74;100.00;102824.16;10358438;28;20034;-79
2022/04/15 10:33:49;;;;;;;13.90;6.63;;;;;;;9.84;100.00;102845.81;10390198;28;20044;-81
2022/04/15 10:39:02;;;;;;;12.43;6.68;;;;;;;9.87;100.00;102845.41;10372296;28;20033;-80
2022/04/15 10:44:03;;;;;;;13.07;6.72;;;;;;;9.70;100.00;102839.34;10384659;28;20045;-82
2022/04/15 10:49:23;;;;;;;13.15;6.53;;;;;;;9.62;100.00;102850.50;10351228;28;20364;-81
2022/04/15 10:54:36;;;;;;;11.18;5.88;;;;;;;9.52;100.00;102825.25;10362411;28;20026;-82
2022/04/15 11:04:56;;;;;;;14.07;6.97;;;;;;;9.26;100.00;102859.69;10361663;28;20109;-82
2022/04/15 11:09:58;;;;;;;12.25;6.78;;;;;;;9.35;100.00;102888.78;10355004;28;20117;-87
2022/04/15 11:14:58;;;;;;;12.02;8.20;;;;;;;9.32;100.00;102863.56;10342703;28;20158;-82
2022/04/15 11:19:59;;;;;;;11.57;6.43;;;;;;;9.39;100.00;102865.34;10292344;28;20035;-80
2022/04/15 11:24:59;;;;;;;9.57;6.25;;;;;;;9.50;100.00;102872.19;10292801;28;20026;-80
2022/04/15 11:30:04;;;;;;;10.57;6.50;;;;;;;9.65;100.00;102880.34;10308514;28;20035;-90
2022/04/15 11:35:05;;;;;;;10.48;5.57;;;;;;;9.74;100.00;102870.06;10311381;28;20042;-81
2022/04/15 11:40:06;;;;;;;9.27;6.22;;;;;;;9.76;100.00;102854.22;10306414;28;20065;-82
2022/04/15 11:45:12;;;;;;;11.23;5.75;;;;;;;9.86;100.00;102877.56;10338086;28;20034;-82
2022/04/15 11:50:12;;;;;;;10.40;6.85;;;;;;;9.64;100.00;102859.41;10387437;28;20431;-82
2022/04/15 11:55:16;;;;;;;9.75;5.93;;;;;;;9.49;100.00;102813.59;10385753;28;20042;-82
2022/04/15 12:00:18;;;;;;;8.32;5.63;;;;;;;9.88;100.00;102885.59;10366612;28;20033;-83
2022/04/15 12:05:19;;;;;;;13.77;5.78;;;;;;;9.72;100.00;102859.25;10387454;28;20109;-83
2022/04/15 12:10:20;;;;;;;10.40;6.10;;;;;;;9.71;100.00;102885.06;10366866;28;20364;-83
2022/04/15 12:15:28;;;;;;;12.60;6.32;;;;;;;9.72;100.00;102897.78;10370403;28;20040;-85
2022/04/15 12:20:29;;;;;;;11.50;7.60;;;;;;;9.72;100.00;102896.94;10387119;28;20042;-83
2022/04/15 12:26:05;;;;;;;13.90;6.32;;;;;;;9.68;100.00;102879.97;10388482;28;20034;-83
2022/04/15 12:30:50;;;;;;;16.48;6.30;;;;;;;9.68;100.00;102901.97;10385320;28;20030;-83
2022/04/15 12:36:02;;;;;;;12.73;6.15;;;;;;;9.65;100.00;102885.84;10388104;28;20034;-82
2022/04/15 12:41:11;;;;;;;13.82;6.80;;;;;;;9.91;100.00;102890.72;10349200;28;20344;-82
2022/04/15 12:46:18;;;;;;;16.13;6.68;;;;;;;10.11;100.00;102904.63;10377346;28;20486;-82
2022/04/15 12:51:19;;;;;;;13.68;6.60;;;;;;;10.06;100.00;102909.88;10389997;28;20101;-83
2022/04/15 12:56:19;;;;;;;12.93;6.25;;;;;;;9.80;100.00;102908.63;10394996;28;20420;-83
2022/04/15 13:01:20;;;;;;;12.73;5.05;;;;;;;9.69;100.00;102898.16;10394268;28;20034;-83
2022/04/15 13:06:22;;;;;;;11.98;5.45;;;;;;;9.79;100.00;102903.31;10395481;28;20049;-83
2022/04/15 13:11:23;;;;;;;11.25;6.65;;;;;;;9.75;100.00;102900.09;10371648;28;20073;-83
2022/04/15 13:16:23;;;;;;;15.75;6.97;;;;;;;9.71;100.00;102907.06;10337335;28;20034;-83
2022/04/15 13:21:24;;;;;;;12.43;6.53;;;;;;;9.64;100.00;102912.50;10354075;28;20512;-83
2022/04/15 13:26:24;;;;;;;18.75;7.72;;;;;;;9.63;100.00;102916.31;10355595;28;20085;-83
2022/04/15 13:31:25;;;;;;;12.70;6.40;;;;;;;9.45;100.00;102897.53;10351292;28;20025;-83
2022/04/15 13:36:25;;;;;;;12.05;5.88;;;;;;;9.40;100.00;102894.50;10392896;28;20033;-83
2022/04/15 13:41:26;;;;;;;16.63;7.00;;;;;;;9.35;100.00;102912.66;10374542;28;20397;-83
2022/04/15 13:46:26;;;;;;;11.40;6.60;;;;;;;9.04;100.00;102869.84;10393776;28;20030;-79
2022/04/15 13:51:28;;;;;;;14.68;6.50;;;;;;;9.21;100.00;102903.41;10393341;28;20037;-81
2022/04/15 13:56:35;;;;;;;11.02;5.90;;;;;;;9.23;100.00;102917.81;10376288;28;20054;-83
2022/04/15 14:01:37;;;;;;;14.68;6.45;;;;;;;9.08;100.00;102904.97;10375587;28;20061;-84
2022/04/15 14:06:41;;;;;;;15.00;7.07;;;;;;;9.31;100.00;102928.69;10336503;28;20052;-90
2022/04/15 14:11:45;;;;;;;15.40;7.07;;;;;;;8.95;100.00;102863.63;10375393;28;20038;-87
2022/04/15 14:16:47;;;;;;;12.93;6.70;;;;;;;9.31;100.00;102928.69;10375397;28;20030;-87
2022/04/15 14:21:47;;;;;;;12.10;6.82;;;;;;;9.12;100.00;102904.63;10358393;28;20022;-88
2022/04/15 14:26:48;;;;;;;15.20;7.28;;;;;;;9.17;100.00;102930.44;10375040;28;20018;-88
2022/04/15 14:31:49;;;;;;;16.17;6.78;;;;;;;9.21;100.00;102929.00;10391035;28;20026;-88
2022/04/15 14:36:49;;;;;;;11.40;6.93;;;;;;;9.16;100.00;102919.66;10371177;28;20057;-86
2022/04/15 14:41:50;;;;;;;12.27;6.22;;;;;;;9.29;100.00;102942.63;10356383;28;20077;-86
2022/04/15 14:46:51;;;;;;;14.55;6.45;;;;;;;9.12;100.00;102916.44;10386462;28;20030;-86
2022/04/15 14:51:51;;;;;;;16.67;6.85;;;;;;;8.88;100.00;102917.63;10365708;28;20034;-87
2022/04/15 14:56:52;;;;;;;12.55;7.00;;;;;;;8.96;100.00;102941.41;10358785;28;20038;-88
2022/04/15 15:01:55;;;;;;;14.90;6.07;;;;;;;9.12;100.00;102943.06;10390924;28;20022;-87
2022/04/15 15:06:55;;;;;;;13.23;6.65;;;;;;;9.09;100.00;102931.44;10372099;28;20104;-89
2022/04/15 15:11:56;;;;;;;14.52;7.70;;;;;;;9.08;100.00;102939.88;10355871;28;20141;-88
2022/04/15 15:16:56;;;;;;;12.18;6.47;;;;;;;9.09;100.00;102952.53;10334030;28;20057;-89
2022/04/15 15:21:56;;;;;;;12.50;6.82;;;;;;;8.97;100.00;102937.59;10355323;28;20072;-86
2022/04/15 15:32:19;;;;;;;10.25;6.15;;;;;;;8.73;100.00;102908.59;10386041;28;20118;-87
2022/04/15 15:37:20;;;;;;;14.75;6.90;;;;;;;8.98;100.00;102962.13;10369837;28;20052;-87
2022/04/15 15:42:21;;;;;;;11.60;6.55;;;;;;;8.85;100.00;102940.84;10389864;28;20045;-88
2022/04/15 15:47:21;;;;;;;12.43;6.55;;;;;;;8.96;100.00;102961.47;10345176;28;20039;-88
2022/04/15 15:52:22;;;;;;;14.02;6.93;;;;;;;8.84;100.00;102960.28;10354944;28;20069;-87
2022/04/15 15:57:22;;;;;;;13.52;6.90;;;;;;;8.56;100.00;102917.03;10315984;28;20049;-88
2022/04/15 16:02:23;;;;;;;17.63;7.45;;;;;;;8.77;100.00;102953.84;10335647;28;20058;-86
2022/04/15 16:07:23;;;;;;;15.98;8.07;;;;;;;8.69;100.00;102957.53;10348318;28;20410;-86
2022/04/15 16:12:24;;;;;;;15.25;7.60;;;;;;;8.66;100.00;102953.28;10331456;28;20395;-86
2022/04/15 16:17:26;;;;;;;10.57;7.00;;;;;;;8.69;100.00;102974.88;10347020;28;20115;-88
2022/04/15 16:22:27;;;;;;;13.20;7.00;;;;;;;8.55;100.00;102967.47;10347336;28;20086;-86
2022/04/15 16:27:27;;;;;;;15.32;7.88;;;;;;;8.41;100.00;102944.50;10348753;28;20027;-88
2022/04/15 16:32:28;;;;;;;11.45;6.15;;;;;;;8.58;100.00;102971.72;10346995;28;20101;-87
2022/04/15 16:37:28;;;;;;;11.70;6.65;;;;;;;8.45;100.00;102947.69;10348601;28;20034;-89
2022/04/15 16:42:29;;;;;;;14.68;6.53;;;;;;;8.54;100.00;102960.31;10346334;28;20035;-89
2022/04/15 16:47:30;;;;;;;14.77;6.65;;;;;;;8.51;100.00;102952.44;10333947;28;20031;-87
2022/04/15 16:52:30;;;;;;;10.23;6.18;;;;;;;8.58;100.00;102964.38;10335426;28;20042;-90
2022/04/15 17:02:50;;;;;;;14.38;7.40;;;;;;;8.25;100.00;102931.78;10325291;28;20041;-87
2022/04/15 17:07:50;;;;;;;11.35;6.15;;;;;;;8.57;100.00;102981.88;10307585;28;20057;-89
2022/04/15 17:12:51;;;;;;;15.05;7.60;;;;;;;8.52;100.00;102981.59;10338627;28;20173;-88
2022/04/15 17:17:51;;;;;;;11.60;6.38;;;;;;;8.53;100.00;102982.44;10337884;28;21258;-86
2022/04/15 17:22:53;;;;;;;11.18;6.85;;;;;;;8.15;100.00;102925.72;10325431;28;20026;-88
2022/04/15 17:27:53;;;;;;;12.20;7.63;;;;;;;8.44;100.00;102993.53;10309637;28;20034;-84
2022/04/15 17:32:54;;;;;;;10.90;6.45;;;;;;;8.38;100.00;103004.38;10343034;28;20049;-89
2022/04/15 17:37:55;;;;;;;14.45;7.53;;;;;;;8.34;100.00;103003.88;10359659;28;20050;-90
2022/04/15 17:42:55;;;;;;;10.63;6.85;;;;;;;8.25;100.00;102991.31;10369895;28;20034;-87
2022/04/15 17:47:55;;;;;;;12.52;8.15;;;;;;;8.25;100.00;103008.59;10358007;28;20608;-88
2022/04/15 17:52:56;;;;;;;17.23;7.80;;;;;;;8.15;100.00;102994.31;10368643;28;20490;-89
2022/04/15 17:57:56;;;;;;;13.75;7.43;;;;;;;8.21;100.00;103022.91;10348676;28;20084;-86
2022/04/15 18:03:00;;;;;;;13.95;7.20;;;;;;;8.05;100.00;103021.16;10350131;28;20436;-88
2022/04/15 18:08:02;;;;;;;15.43;6.82;;;;;;;8.17;100.00;103035.28;10341880;28;20124;-87
2022/04/15 18:13:06;;;;;;;10.73;6.43;;;;;;;8.16;100.00;103026.19;10346145;28;20034;-89
2022/04/15 18:18:07;;;;;;;15.18;6.93;;;;;;;8.14;100.00;103031.00;10358903;28;20176;-89
2022/04/15 18:23:08;;;;;;;11.13;6.63;;;;;;;8.05;100.00;103030.22;10374292;28;20022;-88
2022/04/15 18:28:08;;;;;;;12.18;6.93;;;;;;;7.83;100.00;103001.78;10362767;28;20026;-89
2022/04/15 18:33:09;;;;;;;13.68;7.40;;;;;;;8.11;100.00;103058.81;10362424;28;20037;-89
2022/04/15 18:38:10;;;;;;;11.80;7.93;;;;;;;8.09;100.00;103055.41;10396767;28;20049;-88
2022/04/15 18:43:10;;;;;;;17.20;7.53;;;;;;;8.06;100.00;103050.28;10392196;28;20034;-90
2022/04/15 18:53:30;;;;;;;13.02;7.57;;;;;;;8.05;100.00;103062.28;10390568;28;20034;-88
2022/04/15 18:58:30;;;;;;;15.15;7.80;;;;;;;7.97;100.00;103063.19;10357967;28;20030;-90
2022/04/15 19:03:31;;;;;;;17.50;8.18;;;;;;;7.92;100.00;103062.91;10373619;28;20581;-89
2022/04/15 19:08:32;;;;;;;17.42;9.13;;;;;;;7.75;100.00;103051.22;10372428;28;20060;-87
2022/04/15 19:13:32;;;;;;;13.88;8.00;;;;;;;7.91;100.00;103071.31;10389802;28;20057;-88
2022/04/15 19:18:33;;;;;;;11.70;7.40;;;;;;;8.00;100.00;103095.78;10357250;28;20029;-89
2022/04/15 19:23:33;;;;;;;11.55;7.45;;;;;;;8.02;100.00;103103.78;10390616;28;20333;-85
2022/04/15 19:28:37;;;;;;;16.95;8.60;;;;;;;8.02;100.00;103103.78;10373031;28;20234;-88
2022/04/15 19:33:38;;;;;;;14.02;7.95;;;;;;;7.85;100.00;103082.00;10390132;28;20029;-87
2022/04/15 19:38:38;;;;;;;12.48;7.97;;;;;;;8.00;100.00;103111.34;10334421;28;20045;-87
2022/04/15 19:43:39;;;;;;;16.35;8.82;;;;;;;7.89;100.00;103105.25;10358270;28;20049;-89
2022/04/15 19:48:40;;;;;;;18.92;10.98;;;;;;;7.98;100.00;103113.44;10336361;28;20083;-90
2022/04/15 19:53:40;;;;;;;22.52;9.88;;;;;;;7.81;100.00;103085.25;10349333;28;20073;-90
2022/04/15 20:04:00;;;;;;;17.27;10.65;;;;;;;7.94;100.00;103117.56;10352771;28;20072;-87
2022/04/15 20:09:01;;;;;;;19.17;10.73;;;;;;;7.95;100.00;103124.78;10335391;28;20490;-88
2022/04/15 20:14:01;;;;;;;22.95;11.25;;;;;;;7.82;100.00;103100.69;10353363;28;20069;-87
2022/04/15 20:19:02;;;;;;;17.92;10.13;;;;;;;7.96;100.00;103132.84;10359089;28;20422;-87
2022/04/15 20:24:02;;;;;;;27.23;13.02;;;;;;;7.94;100.00;103123.06;10342866;28;20045;-87
2022/04/15 20:29:04;;;;;;;19.13;11.38;;;;;;;7.94;100.00;103123.94;10351645;28;20060;-88
2022/04/15 20:34:05;;;;;;;15.40;10.38;;;;;;;7.81;100.00;103112.69;10351009;28;20494;-87
2022/04/15 20:39:05;;;;;;;18.17;10.38;;;;;;;7.93;100.00;103132.34;10337752;28;20030;-88
2022/04/15 20:44:06;;;;;;;21.17;11.38;;;;;;;7.92;100.00;103138.84;10373134;28;20026;-87
2022/04/15 20:54:25;;;;;;;21.95;14.30;;;;;;;7.88;100.00;103133.72;10305387;28;20042;-88
2022/04/15 20:59:27;;;;;;;26.10;13.00;;;;;;;7.89;100.00;103138.16;10305928;28;20041;-87
2022/04/15 21:04:27;;;;;;;23.65;13.43;;;;;;;7.89;100.00;103132.69;10308400;28;20030;-88
2022/04/15 21:09:28;;;;;;;22.98;15.00;;;;;;;7.87;100.00;103132.03;10312309;28;20050;-85
2022/04/15 21:14:28;;;;;;;25.35;13.77;;;;;;;7.91;100.00;103128.91;10313236;28;20043;-84
2022/04/15 21:19:30;;;;;;;29.35;15.20;;;;;;;7.79;100.00;103126.59;10327924;28;20030;-87
2022/04/15 21:24:30;;;;;;;24.02;14.88;;;;;;;7.84;100.00;103146.09;10329275;28;20039;-84
2022/04/15 21:29:31;;;;;;;26.33;15.38;;;;;;;7.77;100.00;103127.78;10330740;28;20045;-84
2022/04/15 21:34:32;;;;;;;24.25;13.80;;;;;;;7.73;100.00;103127.31;10351163;28;20039;-87
2022/04/15 21:39:32;;;;;;;28.45;15.00;;;;;;;7.55;100.00;103088.34;10351249;28;20030;-87
2022/04/15 21:44:33;;;;;;;26.13;14.77;;;;;;;7.83;100.00;103129.81;10334540;28;20030;-87
2022/04/15 21:49:34;;;;;;;23.35;14.68;;;;;;;7.81;100.00;103140.09;10351393;28;20089;-87
2022/04/15 21:54:36;;;;;;;25.70;14.30;;;;;;;7.72;100.00;103125.59;10317881;28;20066;-86
2022/04/15 21:59:37;;;;;;;22.95;13.95;;;;;;;7.78;100.00;103146.81;10349872;28;20066;-86
2022/04/15 22:04:39;;;;;;;24.45;15.10;;;;;;;7.76;100.00;103143.41;10323441;28;20047;-86
2022/04/15 22:09:43;;;;;;;24.80;15.13;;;;;;;7.69;100.00;103136.94;10326083;28;20051;-86
2022/04/15 22:14:45;;;;;;;21.50;14.05;;;;;;;7.61;100.00;103123.28;10309408;28;20077;-86
2022/04/15 22:19:49;;;;;;;19.65;13.32;;;;;;;7.79;100.00;103153.16;10293089;28;20030;-87
2022/04/15 22:24:50;;;;;;;18.98;12.63;;;;;;;7.77;100.00;103167.06;10323763;28;20166;-87
2022/04/15 22:29:50;;;;;;;21.00;12.98;;;;;;;7.76;100.00;103153.53;10292630;28;20065;-87
2022/04/15 22:34:51;;;;;;;21.45;13.23;;;;;;;7.65;100.00;103135.59;10325400;28;20078;-86
2022/04/15 22:39:51;;;;;;;23.75;12.77;;;;;;;7.67;100.00;103158.19;10292070;28;20043;-88
2022/04/15 22:44:52;;;;;;;19.85;12.25;;;;;;;7.52;100.00;103143.53;10308565;28;20075;-87
2022/04/15 22:49:54;;;;;;;21.67;13.40;;;;;;;7.40;100.00;103170.44;10333551;28;20039;-86
2022/04/15 23:00:14;;;;;;;25.13;15.23;;;;;;;7.00;100.00;103175.88;10307672;28;20353;-89
2022/04/15 23:05:16;;;;;;;25.75;15.65;;;;;;;6.79;100.00;103181.91;10307961;28;20034;-87
2022/04/15 23:10:16;;;;;;;28.88;16.25;;;;;;;6.29;100.00;103124.63;10307600;28;20055;-88
2022/04/15 23:15:17;;;;;;;34.97;18.33;;;;;;;6.43;100.00;103190.47;10312788;28;20042;-87
2022/04/15 23:20:18;;;;;;;32.47;15.95;;;;;;;6.09;100.00;103171.44;10347047;28;20064;-88
2022/04/15 23:25:19;;;;;;;29.17;17.67;;;;;;;6.05;100.00;103191.94;10346467;28;20034;-87